createdAt,value
2022-12-13T00:01:31.638Z,31.70
2022-12-13T00:04:02.011Z,37.73
2022-12-13T00:06:30.633Z,40.07
2022-12-13T00:09:00.351Z,63.10
2022-12-13T00:11:28.487Z,66.67
2022-12-13T00:13:56.772Z,64.30
2022-12-13T00:16:26.153Z,49.27
2022-12-13T00:18:56.733Z,45.20
2022-12-13T00:21:27.236Z,37.57
2022-12-13T00:23:55.258Z,33.50
2022-12-13T00:26:26.428Z,33.40
2022-12-13T00:28:55.014Z,31.70
2022-12-13T00:34:13.560Z,32.23
2022-12-13T00:36:41.351Z,30.83
2022-12-13T00:39:12.670Z,33.97
2022-12-13T00:41:41.979Z,32.40
2022-12-13T00:44:11.546Z,32.50
2022-12-13T00:46:39.924Z,31.87
2022-12-13T00:49:07.667Z,31.73
2022-12-13T00:51:35.666Z,30.93
2022-12-13T00:54:03.501Z,30.83
2022-12-13T00:56:33.220Z,30.90
2022-12-13T00:59:02.493Z,31.20
2022-12-13T01:01:34.214Z,32.87
2022-12-13T01:04:04.171Z,31.60
2022-12-13T01:06:36.666Z,32.73
2022-12-13T01:09:06.322Z,32.20
2022-12-13T01:11:34.162Z,33.20
2022-12-13T01:14:03.440Z,33.33
2022-12-13T01:16:31.302Z,32.17
2022-12-13T01:18:59.152Z,30.87
2022-12-13T01:21:26.926Z,31.73
2022-12-13T01:24:01.804Z,32.80
2022-12-13T01:26:29.638Z,32.67
2022-12-13T01:28:57.401Z,33.93
2022-12-13T01:31:26.971Z,31.90
2022-12-13T01:33:54.719Z,32.03
2022-12-13T01:36:27.963Z,31.90
2022-12-13T01:38:58.515Z,32.37
2022-12-13T01:41:29.197Z,30.97
2022-12-13T01:44:03.010Z,32.33
2022-12-13T01:46:33.855Z,31.57
2022-12-13T01:49:06.309Z,32.50
2022-12-13T01:51:53.059Z,32.10
2022-12-13T01:54:33.678Z,34.37
2022-12-13T01:57:05.307Z,33.73
2022-12-13T01:59:34.478Z,36.17
2022-12-13T02:02:04.706Z,37.70
2022-12-13T02:04:43.763Z,35.17
2022-12-13T02:07:14.121Z,34.17
2022-12-13T02:09:56.393Z,35.10
2022-12-13T02:12:29.539Z,32.70
2022-12-13T02:15:00.516Z,32.47
2022-12-13T02:17:44.499Z,32.57
2022-12-13T02:20:47.057Z,31.40
2022-12-13T02:23:47.906Z,32.90
2022-12-13T02:26:36.463Z,31.37
2022-12-13T02:29:31.077Z,31.40
2022-12-13T02:32:06.346Z,30.63
2022-12-13T02:34:39.673Z,32.17
2022-12-13T02:37:17.900Z,41.20
2022-12-13T02:39:52.203Z,43.40
2022-12-13T02:42:25.089Z,42.43
2022-12-13T02:44:58.178Z,43.77
2022-12-13T02:47:28.795Z,40.97
2022-12-13T02:49:59.760Z,42.60
2022-12-13T02:52:30.088Z,43.40
2022-12-13T02:54:58.929Z,42.67
2022-12-13T02:57:31.538Z,41.93
2022-12-13T03:00:02.909Z,42.13
2022-12-13T03:02:43.634Z,41.83
2022-12-13T03:05:39.353Z,40.50
2022-12-13T03:08:20.451Z,39.90
2022-12-13T03:10:57.699Z,41.07
2022-12-13T03:13:38.639Z,41.50
2022-12-13T03:16:12.769Z,42.37
2022-12-13T03:18:42.912Z,39.33
2022-12-13T03:21:10.994Z,38.17
2022-12-13T03:23:39.418Z,35.03
2022-12-13T03:26:11.275Z,38.73
2022-12-13T03:28:39.522Z,37.33
2022-12-13T03:31:08.559Z,36.77
2022-12-13T03:33:36.486Z,35.77
2022-12-13T03:36:07.969Z,35.67
2022-12-13T03:38:36.531Z,36.20
2022-12-13T03:41:08.157Z,36.73
2022-12-13T03:43:35.985Z,35.63
2022-12-13T03:46:03.877Z,34.23
2022-12-13T03:48:31.752Z,35.23
2022-12-13T03:50:59.529Z,34.17
2022-12-13T03:53:34.078Z,35.57
2022-12-13T03:56:04.069Z,33.53
2022-12-13T03:58:36.134Z,34.13
2022-12-13T04:01:10.326Z,34.30
2022-12-13T04:03:38.976Z,33.17
2022-12-13T04:06:07.936Z,33.63
2022-12-13T04:08:38.049Z,31.77
2022-12-13T04:11:26.734Z,30.87
2022-12-13T04:13:54.661Z,30.63
2022-12-13T04:16:23.749Z,31.30
2022-12-13T04:18:51.783Z,29.43
2022-12-13T04:21:19.585Z,28.87
2022-12-13T04:23:48.800Z,28.63
2022-12-13T04:26:16.555Z,28.03
2022-12-13T04:28:47.006Z,29.40
2022-12-13T04:31:18.696Z,28.90
2022-12-13T04:33:46.461Z,30.40
2022-12-13T04:36:32.292Z,29.73
2022-12-13T04:39:02.653Z,29.27
2022-12-13T04:41:35.976Z,26.90
2022-12-13T04:44:05.021Z,27.77
2022-12-13T04:46:32.833Z,26.83
2022-12-13T04:49:00.576Z,28.30
2022-12-13T04:51:28.805Z,28.30
2022-12-13T04:53:56.553Z,29.30
2022-12-13T04:56:45.606Z,25.33
2022-12-13T04:59:14.147Z,26.27
2022-12-13T05:01:42.032Z,26.07
2022-12-13T05:04:09.857Z,25.87
2022-12-13T05:06:37.587Z,27.90
2022-12-13T05:09:05.312Z,27.93
2022-12-13T05:11:39.336Z,29.57
2022-12-13T05:14:15.325Z,27.33
2022-12-13T05:16:51.869Z,27.17
2022-12-13T05:19:19.866Z,27.13
2022-12-13T05:21:47.632Z,26.47
2022-12-13T05:24:15.353Z,29.47
2022-12-13T05:26:43.555Z,28.03
2022-12-13T05:29:11.399Z,26.87
2022-12-13T05:31:41.048Z,26.77
2022-12-13T05:34:08.871Z,27.40
2022-12-13T05:36:36.626Z,25.93
2022-12-13T05:39:04.805Z,27.37
2022-12-13T05:41:36.448Z,31.77
2022-12-13T05:44:05.273Z,26.87
2022-12-13T05:46:38.321Z,26.17
2022-12-13T05:49:10.523Z,26.40
2022-12-13T05:51:38.258Z,26.73
2022-12-13T05:54:06.149Z,26.57
2022-12-13T05:56:33.891Z,27.37
2022-12-13T05:59:01.656Z,27.53
2022-12-13T06:01:29.715Z,28.00
2022-12-13T06:03:57.558Z,26.73
2022-12-13T06:06:27.433Z,27.00
2022-12-13T06:08:55.482Z,26.10
2022-12-13T06:11:32.249Z,27.67
2022-12-13T06:14:00.683Z,26.57
2022-12-13T06:16:29.231Z,27.03
2022-12-13T06:19:03.849Z,26.57
2022-12-13T06:21:41.457Z,26.20
2022-12-13T06:24:14.738Z,25.30
2022-12-13T06:26:42.666Z,26.30
2022-12-13T06:29:13.151Z,26.17
2022-12-13T06:34:54.039Z,25.73
2022-12-13T06:37:26.096Z,24.77
2022-12-13T06:39:53.840Z,26.40
2022-12-13T06:42:22.332Z,26.90
2022-12-13T06:44:51.770Z,26.57
2022-12-13T06:47:31.532Z,26.57
2022-12-13T06:50:05.568Z,26.07
2022-12-13T06:52:35.370Z,27.73
2022-12-13T06:55:03.218Z,26.27
2022-12-13T06:57:33.344Z,25.23
2022-12-13T07:00:03.431Z,25.20
2022-12-13T07:02:32.595Z,25.50
2022-12-13T07:05:00.514Z,25.43
2022-12-13T07:07:28.292Z,26.10
2022-12-13T07:09:57.445Z,25.27
2022-12-13T07:12:25.258Z,25.77
2022-12-13T07:14:54.930Z,24.30
2022-12-13T07:17:32.424Z,25.30
2022-12-13T07:20:03.578Z,24.70
2022-12-13T07:22:34.779Z,25.13
2022-12-13T07:25:05.307Z,25.37
2022-12-13T07:27:33.588Z,26.67
2022-12-13T07:30:01.487Z,25.57
2022-12-13T07:32:29.475Z,26.10
2022-12-13T07:34:57.283Z,27.97
2022-12-13T07:37:29.360Z,25.80
2022-12-13T07:40:03.777Z,26.93
2022-12-13T07:42:34.102Z,24.93
2022-12-13T07:45:03.029Z,24.73
2022-12-13T07:47:31.522Z,25.57
2022-12-13T07:49:59.699Z,25.93
2022-12-13T07:52:29.540Z,26.23
2022-12-13T07:54:57.250Z,25.37
2022-12-13T07:57:25.039Z,25.57
2022-12-13T07:59:54.143Z,24.40
2022-12-13T08:02:22.086Z,24.90
2022-12-13T08:04:54.721Z,24.13
2022-12-13T08:07:23.096Z,23.43
2022-12-13T08:09:52.934Z,26.20
2022-12-13T08:12:22.269Z,25.97
2022-12-13T08:14:53.138Z,25.07
2022-12-13T08:17:23.241Z,23.80
2022-12-13T08:19:51.135Z,24.00
2022-12-13T08:22:23.845Z,23.80
2022-12-13T08:24:52.459Z,23.83
2022-12-13T08:27:20.308Z,23.70
2022-12-13T08:29:48.179Z,24.60
2022-12-13T08:32:15.973Z,24.80
2022-12-13T08:34:45.432Z,23.77
2022-12-13T08:37:13.838Z,23.33
2022-12-13T08:39:41.895Z,22.77
2022-12-13T08:42:17.183Z,22.80
2022-12-13T08:44:47.846Z,21.30
2022-12-13T08:47:24.676Z,23.07
2022-12-13T08:50:02.336Z,22.10
2022-12-13T08:52:41.673Z,22.63
2022-12-13T08:55:11.100Z,21.30
2022-12-13T08:57:40.564Z,21.63
2022-12-13T09:00:11.516Z,21.17
2022-12-13T09:02:39.472Z,23.03
2022-12-13T09:05:10.030Z,22.97
2022-12-13T09:07:39.410Z,19.20
2022-12-13T09:10:26.553Z,18.27
2022-12-13T09:13:01.376Z,17.67
2022-12-13T09:15:34.536Z,18.10
2022-12-13T09:18:05.131Z,17.97
2022-12-13T09:20:41.312Z,18.60
2022-12-13T09:23:13.867Z,17.20
2022-12-13T09:25:56.179Z,17.40
2022-12-13T09:28:35.700Z,16.87
2022-12-13T09:31:08.060Z,17.20
2022-12-13T09:33:41.286Z,15.70
2022-12-13T09:36:13.541Z,16.50
2022-12-13T09:38:41.363Z,15.73
2022-12-13T09:41:19.592Z,15.23
2022-12-13T09:43:51.259Z,16.50
2022-12-13T09:46:27.374Z,16.33
2022-12-13T09:49:04.669Z,16.30
2022-12-13T09:51:46.016Z,16.20
2022-12-13T09:54:21.693Z,17.43
2022-12-13T09:56:50.937Z,16.37
2022-12-13T09:59:22.502Z,20.33
2022-12-13T10:01:50.284Z,15.80
2022-12-13T10:04:18.986Z,14.70
2022-12-13T10:06:53.110Z,13.70
2022-12-13T10:09:21.195Z,15.97
2022-12-13T10:11:51.153Z,13.67
2022-12-13T10:14:24.055Z,15.60
2022-12-13T10:16:53.812Z,14.43
2022-12-13T10:19:29.426Z,14.43
2022-12-13T10:22:02.849Z,14.83
2022-12-13T10:24:48.229Z,15.07
2022-12-13T10:27:19.511Z,15.07
2022-12-13T10:30:01.323Z,13.97
2022-12-13T10:32:29.435Z,13.03
2022-12-13T10:35:20.408Z,13.10
2022-12-13T10:37:49.572Z,13.00
2022-12-13T10:40:32.353Z,14.67
2022-12-13T10:43:09.713Z,12.67
2022-12-13T10:45:37.463Z,13.50
2022-12-13T10:48:05.969Z,13.33
2022-12-13T10:50:34.063Z,11.57
2022-12-13T10:53:03.617Z,12.20
2022-12-13T10:55:34.299Z,11.93
2022-12-13T10:58:07.221Z,11.93
2022-12-13T11:00:39.219Z,12.03
2022-12-13T11:03:08.280Z,12.20
2022-12-13T11:05:38.060Z,13.57
2022-12-13T11:08:23.397Z,13.53
2022-12-13T11:10:58.998Z,13.30
2022-12-13T11:13:36.803Z,14.07
2022-12-13T11:16:16.844Z,14.57
2022-12-13T11:18:44.771Z,12.20
2022-12-13T11:21:14.046Z,13.50
2022-12-13T11:23:45.933Z,12.50
2022-12-13T11:26:24.580Z,12.10
2022-12-13T11:29:10.085Z,12.87
2022-12-13T11:31:49.252Z,12.47
2022-12-13T11:34:25.591Z,12.73
2022-12-13T11:36:59.644Z,12.97
2022-12-13T11:39:33.740Z,12.40
2022-12-13T11:42:10.855Z,12.77
2022-12-13T11:44:48.287Z,12.53
2022-12-13T11:47:24.710Z,12.87
2022-12-13T11:49:53.567Z,11.83
2022-12-13T11:52:26.536Z,11.90
2022-12-13T11:55:00.601Z,11.93
2022-12-13T11:57:44.004Z,10.47
2022-12-13T12:00:34.357Z,11.07
2022-12-13T12:03:16.878Z,10.43
2022-12-13T12:05:49.570Z,11.70
2022-12-13T12:08:33.219Z,10.97
2022-12-13T12:11:11.878Z,11.60
2022-12-13T12:13:51.442Z,11.20
2022-12-13T12:16:29.651Z,10.50
2022-12-13T12:19:01.616Z,11.57
2022-12-13T12:22:18.435Z,10.43
2022-12-13T12:24:54.561Z,10.57
2022-12-13T12:27:32.612Z,11.23
2022-12-13T12:30:22.721Z,11.87
2022-12-13T12:32:59.919Z,12.17
2022-12-13T12:35:56.153Z,11.93
2022-12-13T12:38:44.364Z,11.50
2022-12-13T12:41:31.920Z,10.60
2022-12-13T12:44:12.332Z,11.03
2022-12-13T12:47:08.631Z,11.77
2022-12-13T12:50:01.057Z,11.03
2022-12-13T12:52:40.610Z,11.03
2022-12-13T12:55:18.312Z,11.60
2022-12-13T12:57:55.280Z,11.53
2022-12-13T13:00:25.975Z,10.80
2022-12-13T13:03:01.819Z,12.30
2022-12-13T13:05:36.570Z,11.10
2022-12-13T13:08:13.332Z,12.40
2022-12-13T13:10:49.692Z,11.50
2022-12-13T13:13:36.046Z,12.13
2022-12-13T13:16:33.921Z,11.70
2022-12-13T13:19:02.465Z,11.63
2022-12-13T13:21:44.720Z,11.63
2022-12-13T13:24:24.564Z,11.67
2022-12-13T13:26:55.677Z,10.73
2022-12-13T13:29:34.185Z,9.87
2022-12-13T13:32:28.320Z,11.23
2022-12-13T13:35:53.570Z,11.40
2022-12-13T13:38:55.327Z,11.03
2022-12-13T13:41:55.026Z,10.37
2022-12-13T13:44:54.954Z,11.97
2022-12-13T13:47:44.720Z,12.90
2022-12-13T13:50:57.293Z,12.50
2022-12-13T13:54:00.151Z,13.97
2022-12-13T13:56:50.315Z,13.13
2022-12-13T13:59:56.621Z,13.23
2022-12-13T14:02:59.217Z,15.27
2022-12-13T14:06:04.357Z,12.17
2022-12-13T14:08:41.401Z,12.10
2022-12-13T14:11:25.688Z,12.17
2022-12-13T14:14:38.481Z,11.40
2022-12-13T14:17:53.428Z,12.60
2022-12-13T14:20:44.860Z,13.43
2022-12-13T14:23:22.881Z,11.67
2022-12-13T14:26:04.946Z,12.07
2022-12-13T14:28:42.608Z,12.53
2022-12-13T14:31:21.904Z,13.37
2022-12-13T14:33:52.088Z,14.30
2022-12-13T14:36:28.937Z,14.13
2022-12-13T14:39:04.073Z,14.43
2022-12-13T14:41:32.281Z,11.83
2022-12-13T14:44:15.898Z,12.70
2022-12-13T14:46:51.906Z,14.43
2022-12-13T14:49:20.555Z,14.17
2022-12-13T14:52:00.239Z,14.73
2022-12-13T14:54:33.314Z,15.53
2022-12-13T14:57:03.042Z,15.10
2022-12-13T14:59:31.230Z,15.17
2022-12-13T15:02:02.436Z,14.57
2022-12-13T15:04:32.408Z,14.60
2022-12-13T15:07:06.342Z,13.47
2022-12-13T15:09:38.289Z,13.33
2022-12-13T15:12:23.807Z,13.67
2022-12-13T15:14:59.493Z,13.60
2022-12-13T15:17:31.105Z,13.57
2022-12-13T15:20:24.768Z,15.20
2022-12-13T15:23:01.262Z,14.43
2022-12-13T15:25:34.096Z,12.47
2022-12-13T15:28:02.113Z,12.90
2022-12-13T15:30:32.662Z,13.00
2022-12-13T15:33:04.616Z,13.33
2022-12-13T15:35:33.162Z,12.87
2022-12-13T15:38:03.607Z,13.50
2022-12-13T15:40:31.428Z,13.00
2022-12-13T15:42:59.502Z,12.53
2022-12-13T15:45:37.077Z,13.00
2022-12-13T15:48:06.352Z,13.20
2022-12-13T15:50:41.049Z,12.93
2022-12-13T15:53:24.127Z,13.27
2022-12-13T15:55:52.265Z,13.10
2022-12-13T15:58:27.632Z,13.13
2022-12-13T16:00:55.514Z,12.80
2022-12-13T16:03:25.685Z,12.97
2022-12-13T16:05:55.771Z,12.70
2022-12-13T16:08:31.622Z,12.60
2022-12-13T16:11:00.262Z,12.47
2022-12-13T16:13:30.675Z,12.37
2022-12-13T16:16:09.642Z,11.70
2022-12-13T16:18:45.727Z,12.60
2022-12-13T16:21:14.130Z,13.03
2022-12-13T16:23:48.622Z,12.83
2022-12-13T16:26:23.179Z,12.23
2022-12-13T16:28:51.383Z,11.67
2022-12-13T16:31:22.614Z,12.43
2022-12-13T16:33:50.632Z,12.70
2022-12-13T16:36:18.820Z,12.60
2022-12-13T16:38:48.150Z,12.13
2022-12-13T16:41:16.241Z,13.33
2022-12-13T16:43:55.964Z,13.83
2022-12-13T16:47:11.451Z,13.20
2022-12-13T16:49:21.103Z,16.10
2022-12-13T16:51:49.389Z,19.10
2022-12-13T16:54:19.982Z,16.87
2022-12-13T16:56:48.231Z,13.40
2022-12-13T16:59:17.553Z,11.83
2022-12-13T17:01:46.388Z,15.27
2022-12-13T17:04:20.194Z,13.00
2022-12-13T17:06:49.752Z,13.27
2022-12-13T17:09:19.101Z,13.60
2022-12-13T17:11:47.026Z,13.60
2022-12-13T17:14:15.275Z,12.60
2022-12-13T17:16:43.087Z,12.80
2022-12-13T17:19:15.380Z,13.80
2022-12-13T17:21:43.151Z,13.90
2022-12-13T17:24:11.054Z,15.63
2022-12-13T17:26:40.163Z,12.63
2022-12-13T17:29:10.844Z,13.93
2022-12-13T17:31:41.061Z,13.47
2022-12-13T17:34:09.008Z,13.93
2022-12-13T17:36:36.798Z,13.27
2022-12-13T17:39:05.036Z,12.60
2022-12-13T17:41:33.189Z,13.30
2022-12-13T17:44:02.247Z,12.03
2022-12-13T17:46:30.068Z,12.80
2022-12-13T17:48:57.786Z,12.50
2022-12-13T17:51:25.488Z,13.43
2022-12-13T17:53:53.811Z,13.80
2022-12-13T17:56:21.976Z,13.33
2022-12-13T17:58:49.702Z,13.10
2022-12-13T18:01:21.274Z,13.57
2022-12-13T18:03:50.143Z,14.67
2022-12-13T18:06:18.378Z,14.53
2022-12-13T18:08:47.009Z,15.73
2022-12-13T18:11:32.998Z,14.10
2022-12-13T18:14:02.821Z,13.80
2022-12-13T18:16:37.396Z,14.37
2022-12-13T18:19:06.861Z,13.80
2022-12-13T18:21:36.505Z,15.37
2022-12-13T18:24:05.195Z,15.23
2022-12-13T18:26:32.986Z,16.27
2022-12-13T18:29:00.766Z,16.50
2022-12-13T18:31:28.899Z,25.93
2022-12-13T18:33:58.053Z,19.37
2022-12-13T18:36:27.134Z,16.67
2022-12-13T18:38:54.951Z,16.27
2022-12-13T18:41:24.174Z,16.33
2022-12-13T18:43:59.212Z,18.07
2022-12-13T18:46:29.310Z,24.10
2022-12-13T18:48:58.837Z,20.10
2022-12-13T18:51:26.693Z,19.57
2022-12-13T18:53:55.986Z,15.47
2022-12-13T18:56:24.677Z,17.37
2022-12-13T18:58:53.316Z,18.27
2022-12-13T19:01:22.660Z,15.97
2022-12-13T19:03:50.601Z,18.97
2022-12-13T19:06:21.741Z,17.50
2022-12-13T19:08:50.346Z,24.27
2022-12-13T19:11:18.768Z,24.53
2022-12-13T19:13:46.854Z,20.17
2022-12-13T19:16:20.891Z,20.10
2022-12-13T19:18:53.332Z,18.13
2022-12-13T19:21:27.349Z,21.50
2022-12-13T19:24:01.348Z,21.40
2022-12-13T19:26:30.515Z,18.33
2022-12-13T19:29:04.275Z,17.17
2022-12-13T19:32:03.331Z,19.97
2022-12-13T19:34:31.432Z,22.67
2022-12-13T19:37:06.072Z,20.90
2022-12-13T19:39:34.443Z,22.43
2022-12-13T19:42:02.221Z,21.53
2022-12-13T19:44:30.038Z,25.27
2022-12-13T19:46:58.530Z,22.43
2022-12-13T19:49:26.468Z,16.00
2022-12-13T19:51:55.136Z,23.57
2022-12-13T19:54:25.815Z,19.10
2022-12-13T19:56:54.209Z,18.03
2022-12-13T19:59:22.209Z,21.40
2022-12-13T20:01:50.038Z,23.17
2022-12-13T20:04:17.822Z,24.13
2022-12-13T20:06:45.764Z,24.47
2022-12-13T20:09:14.077Z,22.73
2022-12-13T20:11:43.167Z,22.67
2022-12-13T20:14:11.031Z,22.77
2022-12-13T20:16:38.880Z,22.67
2022-12-13T20:19:06.708Z,22.90
2022-12-13T20:21:34.657Z,32.23
2022-12-13T20:24:02.969Z,24.97
2022-12-13T20:26:31.521Z,24.10
2022-12-13T20:29:01.141Z,21.80
2022-12-13T20:31:30.985Z,55.93
2022-12-13T20:34:00.575Z,34.77
2022-12-13T20:36:29.900Z,36.33
2022-12-13T20:38:59.550Z,34.73
2022-12-13T20:41:29.682Z,35.53
2022-12-13T20:43:59.124Z,36.93
2022-12-13T20:46:29.665Z,26.50
2022-12-13T20:48:58.551Z,27.63
2022-12-13T20:51:28.478Z,94.73
2022-12-13T20:53:57.489Z,32.60
2022-12-13T20:56:35.170Z,14.90
2022-12-13T20:59:03.516Z,18.13
2022-12-13T21:01:34.972Z,111.03
2022-12-13T21:04:05.520Z,16.73
2022-12-13T21:06:35.950Z,14.33
2022-12-13T21:09:04.993Z,14.23
2022-12-13T21:11:35.030Z,13.10
2022-12-13T21:14:09.885Z,13.17
2022-12-13T21:16:43.648Z,12.87
2022-12-13T21:19:14.140Z,12.30
2022-12-13T21:21:41.980Z,12.80
2022-12-13T21:24:10.427Z,12.97
2022-12-13T21:26:38.164Z,14.60
2022-12-13T21:29:07.598Z,13.27
2022-12-13T21:31:36.751Z,15.43
2022-12-13T21:34:06.836Z,18.33
2022-12-13T21:36:36.882Z,20.80
2022-12-13T21:39:06.551Z,11.77
2022-12-13T21:41:34.485Z,12.50
2022-12-13T21:44:02.293Z,13.30
2022-12-13T21:47:10.146Z,13.50
2022-12-13T21:49:23.174Z,12.57
2022-12-13T21:51:51.062Z,11.87
2022-12-13T21:54:18.984Z,12.27
2022-12-13T21:57:04.414Z,11.70
2022-12-13T21:59:32.388Z,11.77
2022-12-13T22:02:14.896Z,12.30
2022-12-13T22:04:45.819Z,12.30
2022-12-13T22:07:15.800Z,12.33
2022-12-13T22:09:45.393Z,17.03
2022-12-13T22:12:20.097Z,12.67
2022-12-13T22:14:48.589Z,13.20
2022-12-13T22:17:16.689Z,16.60
2022-12-13T22:19:48.747Z,12.17
2022-12-13T22:22:17.970Z,33.77
2022-12-13T22:24:52.728Z,21.10
2022-12-13T22:27:25.312Z,15.83
2022-12-13T22:29:54.196Z,19.87
2022-12-13T22:32:22.453Z,22.23
2022-12-13T22:34:51.701Z,40.97
2022-12-13T22:37:19.838Z,37.53
2022-12-13T22:39:47.626Z,15.43
2022-12-13T22:42:15.520Z,15.53
2022-12-13T22:44:43.460Z,16.23
2022-12-13T22:47:11.192Z,14.23
2022-12-13T22:49:38.898Z,12.77
2022-12-13T22:52:09.549Z,12.57
2022-12-13T22:54:37.396Z,12.50
2022-12-13T22:57:05.278Z,14.10
2022-12-13T22:59:32.998Z,13.30
2022-12-13T23:02:03.015Z,13.27
2022-12-13T23:04:33.672Z,12.87
2022-12-13T23:07:01.830Z,13.57
2022-12-13T23:09:30.878Z,13.63
2022-12-13T23:12:16.111Z,12.80
2022-12-13T23:14:43.961Z,12.43
2022-12-13T23:17:11.697Z,12.50
2022-12-13T23:19:49.066Z,12.43
2022-12-13T23:22:19.512Z,12.77
2022-12-13T23:24:48.600Z,12.73
2022-12-13T23:27:16.902Z,12.40
2022-12-13T23:29:45.130Z,12.13
2022-12-13T23:32:13.044Z,12.07
2022-12-13T23:34:40.715Z,13.10
2022-12-13T23:37:08.461Z,13.27
2022-12-13T23:39:36.324Z,12.87
2022-12-13T23:42:05.581Z,13.90
2022-12-13T23:44:33.545Z,12.13
2022-12-13T23:47:01.367Z,11.77
2022-12-13T23:49:29.409Z,12.03
2022-12-13T23:51:57.117Z,12.47
2022-12-13T23:54:24.841Z,12.77
2022-12-13T23:56:52.568Z,11.70
2022-12-13T23:59:21.626Z,12.00
